sensor_id;sensor_type;location;lat;lon;timestamp;P1;durP1;ratioP1;P2;durP2;ratioP2
60372;SDS011;46216;52.220;5.134;2022-11-15T00:00:01;37.17;;;22.35;;
60372;SDS011;46216;52.220;5.134;2022-11-15T00:02:27;39.55;;;22.73;;
60372;SDS011;46216;52.220;5.134;2022-11-15T00:04:52;35.70;;;22.77;;
60372;SDS011;46216;52.220;5.134;2022-11-15T00:07:17;37.38;;;22.48;;
60372;SDS011;46216;52.220;5.134;2022-11-15T00:09:43;39.50;;;22.75;;
60372;SDS011;46216;52.220;5.134;2022-11-15T00:12:08;40.42;;;22.05;;
60372;SDS011;46216;52.220;5.134;2022-11-15T00:14:33;44.97;;;24.48;;
60372;SDS011;46216;52.220;5.134;2022-11-15T00:16:59;44.47;;;23.90;;
60372;SDS011;46216;52.220;5.134;2022-11-15T00:19:24;43.95;;;23.75;;
60372;SDS011;46216;52.220;5.134;2022-11-15T00:21:49;44.35;;;23.15;;
60372;SDS011;46216;52.220;5.134;2022-11-15T00:24:15;44.92;;;24.02;;
60372;SDS011;46216;52.220;5.134;2022-11-15T00:26:40;52.10;;;23.63;;
60372;SDS011;46216;52.220;5.134;2022-11-15T00:29:06;48.30;;;23.40;;
60372;SDS011;46216;52.220;5.134;2022-11-15T00:31:31;52.65;;;23.98;;
60372;SDS011;46216;52.220;5.134;2022-11-15T00:33:56;48.53;;;23.55;;
60372;SDS011;46216;52.220;5.134;2022-11-15T00:36:21;50.97;;;23.52;;
60372;SDS011;46216;52.220;5.134;2022-11-15T00:38:47;51.40;;;24.48;;
60372;SDS011;46216;52.220;5.134;2022-11-15T00:41:12;47.40;;;23.35;;
60372;SDS011;46216;52.220;5.134;2022-11-15T00:43:37;49.45;;;24.13;;
60372;SDS011;46216;52.220;5.134;2022-11-15T00:46:04;52.75;;;23.42;;
60372;SDS011;46216;52.220;5.134;2022-11-15T00:48:30;49.88;;;24.30;;
60372;SDS011;46216;52.220;5.134;2022-11-15T00:50:56;55.40;;;24.10;;
60372;SDS011;46216;52.220;5.134;2022-11-15T00:53:22;54.05;;;23.73;;
60372;SDS011;46216;52.220;5.134;2022-11-15T00:55:47;55.60;;;23.77;;
60372;SDS011;46216;52.220;5.134;2022-11-15T00:58:12;52.85;;;23.58;;
60372;SDS011;46216;52.220;5.134;2022-11-15T01:00:38;53.58;;;24.98;;
60372;SDS011;46216;52.220;5.134;2022-11-15T01:03:03;55.13;;;24.30;;
60372;SDS011;46216;52.220;5.134;2022-11-15T01:05:28;56.33;;;24.92;;
60372;SDS011;46216;52.220;5.134;2022-11-15T01:07:54;60.92;;;25.73;;
60372;SDS011;46216;52.220;5.134;2022-11-15T01:10:21;61.05;;;24.42;;
60372;SDS011;46216;52.220;5.134;2022-11-15T01:12:47;59.67;;;25.70;;
60372;SDS011;46216;52.220;5.134;2022-11-15T01:15:13;58.72;;;25.00;;
60372;SDS011;46216;52.220;5.134;2022-11-15T01:17:38;57.00;;;25.00;;
60372;SDS011;46216;52.220;5.134;2022-11-15T01:20:03;63.75;;;26.13;;
60372;SDS011;46216;52.220;5.134;2022-11-15T01:22:29;58.95;;;24.65;;
60372;SDS011;46216;52.220;5.134;2022-11-15T01:24:55;54.15;;;24.63;;
60372;SDS011;46216;52.220;5.134;2022-11-15T01:27:20;60.08;;;26.35;;
60372;SDS011;46216;52.220;5.134;2022-11-15T01:29:45;64.50;;;25.55;;
60372;SDS011;46216;52.220;5.134;2022-11-15T01:32:10;61.08;;;25.27;;
60372;SDS011;46216;52.220;5.134;2022-11-15T01:34:36;65.13;;;26.73;;
60372;SDS011;46216;52.220;5.134;2022-11-15T01:37:01;71.75;;;27.35;;
60372;SDS011;46216;52.220;5.134;2022-11-15T01:39:27;59.17;;;26.55;;
60372;SDS011;46216;52.220;5.134;2022-11-15T01:41:52;64.68;;;26.35;;
60372;SDS011;46216;52.220;5.134;2022-11-15T01:46:59;59.70;;;26.80;;
60372;SDS011;46216;52.220;5.134;2022-11-15T01:49:27;63.55;;;26.70;;
60372;SDS011;46216;52.220;5.134;2022-11-15T01:51:57;62.05;;;26.92;;
60372;SDS011;46216;52.220;5.134;2022-11-15T01:54:23;58.70;;;26.77;;
60372;SDS011;46216;52.220;5.134;2022-11-15T01:56:53;55.38;;;25.65;;
60372;SDS011;46216;52.220;5.134;2022-11-15T01:59:24;64.47;;;26.75;;
60372;SDS011;46216;52.220;5.134;2022-11-15T02:01:50;59.25;;;26.77;;
60372;SDS011;46216;52.220;5.134;2022-11-15T02:04:17;64.95;;;28.00;;
60372;SDS011;46216;52.220;5.134;2022-11-15T02:06:48;65.93;;;27.73;;
60372;SDS011;46216;52.220;5.134;2022-11-15T02:09:13;63.67;;;25.77;;
60372;SDS011;46216;52.220;5.134;2022-11-15T02:11:39;65.00;;;28.15;;
60372;SDS011;46216;52.220;5.134;2022-11-15T02:14:04;64.18;;;26.85;;
60372;SDS011;46216;52.220;5.134;2022-11-15T02:33:21;61.55;;;29.05;;
60372;SDS011;46216;52.220;5.134;2022-11-15T02:35:59;69.78;;;29.17;;
60372;SDS011;46216;52.220;5.134;2022-11-15T02:41:15;69.40;;;29.35;;
60372;SDS011;46216;52.220;5.134;2022-11-15T02:44:01;61.00;;;28.33;;
60372;SDS011;46216;52.220;5.134;2022-11-15T02:49:25;69.30;;;29.92;;
60372;SDS011;46216;52.220;5.134;2022-11-15T02:51:54;77.03;;;30.30;;
60372;SDS011;46216;52.220;5.134;2022-11-15T02:54:24;67.78;;;28.05;;
60372;SDS011;46216;52.220;5.134;2022-11-15T02:56:54;70.95;;;28.40;;
60372;SDS011;46216;52.220;5.134;2022-11-15T03:04:44;75.85;;;30.27;;
60372;SDS011;46216;52.220;5.134;2022-11-15T03:07:25;70.10;;;29.98;;
60372;SDS011;46216;52.220;5.134;2022-11-15T03:10:00;67.55;;;30.83;;
60372;SDS011;46216;52.220;5.134;2022-11-15T03:17:41;79.05;;;30.42;;
60372;SDS011;46216;52.220;5.134;2022-11-15T03:20:13;76.28;;;31.52;;
60372;SDS011;46216;52.220;5.134;2022-11-15T03:22:43;64.63;;;29.70;;
60372;SDS011;46216;52.220;5.134;2022-11-15T03:25:13;71.20;;;30.90;;
60372;SDS011;46216;52.220;5.134;2022-11-15T03:27:43;76.97;;;31.20;;
60372;SDS011;46216;52.220;5.134;2022-11-15T03:30:12;80.20;;;31.42;;
60372;SDS011;46216;52.220;5.134;2022-11-15T03:32:40;77.88;;;31.75;;
60372;SDS011;46216;52.220;5.134;2022-11-15T03:35:15;74.47;;;31.05;;
60372;SDS011;46216;52.220;5.134;2022-11-15T03:40:41;69.47;;;29.95;;
60372;SDS011;46216;52.220;5.134;2022-11-15T03:46:01;74.35;;;31.13;;
60372;SDS011;46216;52.220;5.134;2022-11-15T03:48:30;77.78;;;32.67;;
60372;SDS011;46216;52.220;5.134;2022-11-15T03:51:01;80.22;;;32.70;;
60372;SDS011;46216;52.220;5.134;2022-11-15T03:53:27;70.95;;;31.15;;
60372;SDS011;46216;52.220;5.134;2022-11-15T03:55:53;76.28;;;32.95;;
60372;SDS011;46216;52.220;5.134;2022-11-15T03:58:18;74.40;;;33.15;;
60372;SDS011;46216;52.220;5.134;2022-11-15T04:00:44;68.05;;;31.52;;
60372;SDS011;46216;52.220;5.134;2022-11-15T04:03:09;71.63;;;32.50;;
60372;SDS011;46216;52.220;5.134;2022-11-15T04:05:34;75.40;;;31.83;;
60372;SDS011;46216;52.220;5.134;2022-11-15T04:07:59;69.88;;;33.05;;
60372;SDS011;46216;52.220;5.134;2022-11-15T04:10:25;70.05;;;32.22;;
60372;SDS011;46216;52.220;5.134;2022-11-15T04:12:50;65.38;;;32.30;;
60372;SDS011;46216;52.220;5.134;2022-11-15T04:15:19;69.65;;;32.42;;
60372;SDS011;46216;52.220;5.134;2022-11-15T04:17:47;66.05;;;30.77;;
60372;SDS011;46216;52.220;5.134;2022-11-15T04:20:18;66.47;;;30.67;;
60372;SDS011;46216;52.220;5.134;2022-11-15T04:23:03;63.40;;;30.70;;
60372;SDS011;46216;52.220;5.134;2022-11-15T04:25:49;64.05;;;30.02;;
60372;SDS011;46216;52.220;5.134;2022-11-15T04:28:16;61.25;;;29.42;;
60372;SDS011;46216;52.220;5.134;2022-11-15T04:30:42;62.20;;;30.30;;
60372;SDS011;46216;52.220;5.134;2022-11-15T04:33:07;56.60;;;29.02;;
60372;SDS011;46216;52.220;5.134;2022-11-15T04:35:33;57.35;;;29.13;;
60372;SDS011;46216;52.220;5.134;2022-11-15T04:37:59;55.15;;;29.67;;
60372;SDS011;46216;52.220;5.134;2022-11-15T04:40:26;55.83;;;28.30;;
60372;SDS011;46216;52.220;5.134;2022-11-15T04:42:52;56.58;;;28.55;;
60372;SDS011;46216;52.220;5.134;2022-11-15T04:45:17;55.83;;;28.38;;
60372;SDS011;46216;52.220;5.134;2022-11-15T04:47:43;51.42;;;27.17;;
60372;SDS011;46216;52.220;5.134;2022-11-15T04:50:10;49.17;;;27.20;;
60372;SDS011;46216;52.220;5.134;2022-11-15T04:52:38;49.10;;;27.85;;
60372;SDS011;46216;52.220;5.134;2022-11-15T04:55:10;52.10;;;27.92;;
60372;SDS011;46216;52.220;5.134;2022-11-15T04:57:36;45.28;;;26.83;;
60372;SDS011;46216;52.220;5.134;2022-11-15T05:00:03;46.35;;;26.88;;
60372;SDS011;46216;52.220;5.134;2022-11-15T05:02:30;45.65;;;26.70;;
60372;SDS011;46216;52.220;5.134;2022-11-15T05:05:16;42.55;;;24.50;;
60372;SDS011;46216;52.220;5.134;2022-11-15T05:07:41;43.80;;;26.23;;
60372;SDS011;46216;52.220;5.134;2022-11-15T05:10:07;47.05;;;26.25;;
60372;SDS011;46216;52.220;5.134;2022-11-15T05:12:32;45.78;;;25.08;;
60372;SDS011;46216;52.220;5.134;2022-11-15T05:14:58;40.58;;;24.10;;
60372;SDS011;46216;52.220;5.134;2022-11-15T05:17:23;39.42;;;24.52;;
60372;SDS011;46216;52.220;5.134;2022-11-15T05:19:48;40.05;;;24.60;;
60372;SDS011;46216;52.220;5.134;2022-11-15T05:22:13;43.40;;;25.60;;
60372;SDS011;46216;52.220;5.134;2022-11-15T05:24:39;48.08;;;24.98;;
60372;SDS011;46216;52.220;5.134;2022-11-15T05:27:04;40.72;;;24.20;;
60372;SDS011;46216;52.220;5.134;2022-11-15T05:29:29;39.58;;;24.15;;
60372;SDS011;46216;52.220;5.134;2022-11-15T05:31:54;44.63;;;24.58;;
60372;SDS011;46216;52.220;5.134;2022-11-15T05:34:21;44.40;;;24.55;;
60372;SDS011;46216;52.220;5.134;2022-11-15T05:36:47;40.42;;;24.33;;
60372;SDS011;46216;52.220;5.134;2022-11-15T05:39:13;39.58;;;23.00;;
60372;SDS011;46216;52.220;5.134;2022-11-15T05:41:41;40.90;;;24.20;;
60372;SDS011;46216;52.220;5.134;2022-11-15T05:44:17;39.15;;;23.38;;
60372;SDS011;46216;52.220;5.134;2022-11-15T05:46:46;37.90;;;24.13;;
60372;SDS011;46216;52.220;5.134;2022-11-15T05:49:15;42.85;;;24.23;;
60372;SDS011;46216;52.220;5.134;2022-11-15T05:51:44;39.30;;;22.58;;
60372;SDS011;46216;52.220;5.134;2022-11-15T05:54:12;40.25;;;23.52;;
60372;SDS011;46216;52.220;5.134;2022-11-15T05:56:38;39.65;;;24.08;;
60372;SDS011;46216;52.220;5.134;2022-11-15T05:59:04;36.13;;;22.90;;
60372;SDS011;46216;52.220;5.134;2022-11-15T06:01:32;38.55;;;23.17;;
60372;SDS011;46216;52.220;5.134;2022-11-15T06:04:00;38.30;;;24.00;;
60372;SDS011;46216;52.220;5.134;2022-11-15T06:06:27;37.72;;;22.50;;
60372;SDS011;46216;52.220;5.134;2022-11-15T06:08:53;34.22;;;22.05;;
60372;SDS011;46216;52.220;5.134;2022-11-15T06:11:18;33.88;;;22.00;;
60372;SDS011;46216;52.220;5.134;2022-11-15T06:13:44;37.92;;;23.55;;
60372;SDS011;46216;52.220;5.134;2022-11-15T06:16:09;37.75;;;23.15;;
60372;SDS011;46216;52.220;5.134;2022-11-15T06:18:35;37.20;;;22.20;;
60372;SDS011;46216;52.220;5.134;2022-11-15T06:21:01;37.45;;;22.52;;
60372;SDS011;46216;52.220;5.134;2022-11-15T06:23:27;37.05;;;22.98;;
60372;SDS011;46216;52.220;5.134;2022-11-15T06:25:53;34.75;;;22.08;;
60372;SDS011;46216;52.220;5.134;2022-11-15T06:28:18;35.10;;;22.23;;
60372;SDS011;46216;52.220;5.134;2022-11-15T06:30:44;33.88;;;22.45;;
60372;SDS011;46216;52.220;5.134;2022-11-15T06:33:09;37.53;;;21.80;;
60372;SDS011;46216;52.220;5.134;2022-11-15T06:35:35;41.58;;;22.80;;
60372;SDS011;46216;52.220;5.134;2022-11-15T06:38:08;33.15;;;22.42;;
60372;SDS011;46216;52.220;5.134;2022-11-15T06:40:35;35.70;;;22.33;;
60372;SDS011;46216;52.220;5.134;2022-11-15T06:43:01;30.80;;;22.27;;
60372;SDS011;46216;52.220;5.134;2022-11-15T06:45:27;35.45;;;22.15;;
60372;SDS011;46216;52.220;5.134;2022-11-15T06:47:53;36.75;;;22.73;;
60372;SDS011;46216;52.220;5.134;2022-11-15T06:50:18;35.08;;;22.13;;
60372;SDS011;46216;52.220;5.134;2022-11-15T06:52:43;36.50;;;21.52;;
60372;SDS011;46216;52.220;5.134;2022-11-15T06:55:09;34.17;;;21.88;;
60372;SDS011;46216;52.220;5.134;2022-11-15T06:57:35;33.75;;;22.65;;
60372;SDS011;46216;52.220;5.134;2022-11-15T07:00:02;32.05;;;21.48;;
60372;SDS011;46216;52.220;5.134;2022-11-15T07:02:31;32.65;;;20.35;;
60372;SDS011;46216;52.220;5.134;2022-11-15T07:04:56;31.70;;;21.52;;
60372;SDS011;46216;52.220;5.134;2022-11-15T07:07:21;31.17;;;20.90;;
60372;SDS011;46216;52.220;5.134;2022-11-15T07:09:48;32.95;;;20.50;;
60372;SDS011;46216;52.220;5.134;2022-11-15T07:12:13;35.17;;;21.38;;
60372;SDS011;46216;52.220;5.134;2022-11-15T07:14:39;28.23;;;19.20;;
60372;SDS011;46216;52.220;5.134;2022-11-15T07:17:04;29.08;;;19.63;;
60372;SDS011;46216;52.220;5.134;2022-11-15T07:19:30;28.85;;;19.77;;
60372;SDS011;46216;52.220;5.134;2022-11-15T07:21:55;32.35;;;19.02;;
60372;SDS011;46216;52.220;5.134;2022-11-15T07:24:21;29.90;;;19.98;;
60372;SDS011;46216;52.220;5.134;2022-11-15T07:26:46;28.58;;;19.85;;
60372;SDS011;46216;52.220;5.134;2022-11-15T07:29:11;29.58;;;19.73;;
60372;SDS011;46216;52.220;5.134;2022-11-15T07:31:37;28.40;;;19.30;;
60372;SDS011;46216;52.220;5.134;2022-11-15T07:34:02;27.73;;;19.02;;
60372;SDS011;46216;52.220;5.134;2022-11-15T07:36:28;32.97;;;19.48;;
60372;SDS011;46216;52.220;5.134;2022-11-15T07:38:53;30.17;;;19.15;;
60372;SDS011;46216;52.220;5.134;2022-11-15T07:41:18;30.20;;;18.83;;
60372;SDS011;46216;52.220;5.134;2022-11-15T07:43:44;27.48;;;17.55;;
60372;SDS011;46216;52.220;5.134;2022-11-15T07:46:09;30.48;;;18.67;;
60372;SDS011;46216;52.220;5.134;2022-11-15T07:48:38;26.98;;;18.50;;
60372;SDS011;46216;52.220;5.134;2022-11-15T07:51:05;28.77;;;17.95;;
60372;SDS011;46216;52.220;5.134;2022-11-15T07:53:31;27.48;;;18.15;;
60372;SDS011;46216;52.220;5.134;2022-11-15T07:55:57;30.38;;;18.92;;
60372;SDS011;46216;52.220;5.134;2022-11-15T07:58:22;28.33;;;18.38;;
60372;SDS011;46216;52.220;5.134;2022-11-15T08:00:47;26.00;;;17.70;;
60372;SDS011;46216;52.220;5.134;2022-11-15T08:03:14;27.67;;;17.77;;
60372;SDS011;46216;52.220;5.134;2022-11-15T08:05:40;27.17;;;17.50;;
60372;SDS011;46216;52.220;5.134;2022-11-15T08:08:07;25.15;;;17.45;;
60372;SDS011;46216;52.220;5.134;2022-11-15T08:10:34;26.30;;;17.85;;
60372;SDS011;46216;52.220;5.134;2022-11-15T08:13:01;26.15;;;17.52;;
60372;SDS011;46216;52.220;5.134;2022-11-15T08:15:29;26.95;;;17.00;;
60372;SDS011;46216;52.220;5.134;2022-11-15T08:17:59;23.90;;;16.85;;
60372;SDS011;46216;52.220;5.134;2022-11-15T08:20:27;25.63;;;16.67;;
60372;SDS011;46216;52.220;5.134;2022-11-15T08:22:57;28.73;;;16.80;;
60372;SDS011;46216;52.220;5.134;2022-11-15T08:25:25;25.90;;;16.45;;
60372;SDS011;46216;52.220;5.134;2022-11-15T08:27:52;21.98;;;16.35;;
60372;SDS011;46216;52.220;5.134;2022-11-15T08:30:18;25.10;;;15.93;;
60372;SDS011;46216;52.220;5.134;2022-11-15T08:32:44;23.15;;;15.45;;
60372;SDS011;46216;52.220;5.134;2022-11-15T08:35:10;22.77;;;15.25;;
60372;SDS011;46216;52.220;5.134;2022-11-15T08:37:36;20.17;;;14.80;;
60372;SDS011;46216;52.220;5.134;2022-11-15T08:40:02;24.65;;;14.68;;
60372;SDS011;46216;52.220;5.134;2022-11-15T08:42:28;22.33;;;14.35;;
60372;SDS011;46216;52.220;5.134;2022-11-15T08:44:53;20.23;;;14.48;;
60372;SDS011;46216;52.220;5.134;2022-11-15T08:47:18;25.55;;;14.52;;
60372;SDS011;46216;52.220;5.134;2022-11-15T08:49:43;20.38;;;14.15;;
60372;SDS011;46216;52.220;5.134;2022-11-15T08:52:09;19.63;;;14.05;;
60372;SDS011;46216;52.220;5.134;2022-11-15T08:54:34;20.77;;;13.70;;
60372;SDS011;46216;52.220;5.134;2022-11-15T08:56:59;25.13;;;15.13;;
60372;SDS011;46216;52.220;5.134;2022-11-15T08:59:25;21.48;;;13.80;;
60372;SDS011;46216;52.220;5.134;2022-11-15T09:01:51;22.85;;;13.35;;
60372;SDS011;46216;52.220;5.134;2022-11-15T09:04:16;18.63;;;13.35;;
60372;SDS011;46216;52.220;5.134;2022-11-15T09:06:41;21.83;;;12.27;;
60372;SDS011;46216;52.220;5.134;2022-11-15T09:09:06;18.73;;;12.50;;
60372;SDS011;46216;52.220;5.134;2022-11-15T09:11:32;18.67;;;12.50;;
60372;SDS011;46216;52.220;5.134;2022-11-15T09:13:57;20.88;;;11.88;;
60372;SDS011;46216;52.220;5.134;2022-11-15T09:16:23;19.30;;;12.00;;
60372;SDS011;46216;52.220;5.134;2022-11-15T09:18:48;19.52;;;11.73;;
60372;SDS011;46216;52.220;5.134;2022-11-15T09:21:13;18.13;;;10.88;;
60372;SDS011;46216;52.220;5.134;2022-11-15T09:23:39;17.55;;;11.43;;
60372;SDS011;46216;52.220;5.134;2022-11-15T09:26:05;15.93;;;10.73;;
60372;SDS011;46216;52.220;5.134;2022-11-15T09:28:31;18.58;;;10.93;;
60372;SDS011;46216;52.220;5.134;2022-11-15T09:30:58;14.73;;;10.13;;
60372;SDS011;46216;52.220;5.134;2022-11-15T09:33:25;17.83;;;10.75;;
60372;SDS011;46216;52.220;5.134;2022-11-15T09:35:51;16.63;;;10.40;;
60372;SDS011;46216;52.220;5.134;2022-11-15T09:38:16;16.02;;;9.75;;
60372;SDS011;46216;52.220;5.134;2022-11-15T09:40:42;12.98;;;9.80;;
60372;SDS011;46216;52.220;5.134;2022-11-15T09:48:55;15.82;;;9.10;;
60372;SDS011;46216;52.220;5.134;2022-11-15T09:51:24;13.70;;;9.20;;
60372;SDS011;46216;52.220;5.134;2022-11-15T09:57:18;13.70;;;8.45;;
60372;SDS011;46216;52.220;5.134;2022-11-15T10:04:58;10.80;;;8.18;;
60372;SDS011;46216;52.220;5.134;2022-11-15T10:07:27;10.40;;;7.55;;
60372;SDS011;46216;52.220;5.134;2022-11-15T10:10:12;11.38;;;7.20;;
60372;SDS011;46216;52.220;5.134;2022-11-15T10:12:50;10.68;;;7.18;;
60372;SDS011;46216;52.220;5.134;2022-11-15T10:15:17;10.18;;;6.82;;
60372;SDS011;46216;52.220;5.134;2022-11-15T10:20:55;9.80;;;5.95;;
60372;SDS011;46216;52.220;5.134;2022-11-15T10:23:24;8.40;;;5.55;;
60372;SDS011;46216;52.220;5.134;2022-11-15T10:25:53;10.38;;;6.13;;
60372;SDS011;46216;52.220;5.134;2022-11-15T10:28:22;10.00;;;6.15;;
60372;SDS011;46216;52.220;5.134;2022-11-15T10:30:53;7.78;;;6.03;;
60372;SDS011;46216;52.220;5.134;2022-11-15T10:33:22;8.65;;;6.03;;
60372;SDS011;46216;52.220;5.134;2022-11-15T10:41:19;7.72;;;5.78;;
60372;SDS011;46216;52.220;5.134;2022-11-15T10:46:42;7.38;;;5.32;;
60372;SDS011;46216;52.220;5.134;2022-11-15T10:49:15;10.85;;;5.95;;
60372;SDS011;46216;52.220;5.134;2022-11-15T10:51:46;10.02;;;5.30;;
60372;SDS011;46216;52.220;5.134;2022-11-15T10:54:21;9.23;;;5.60;;
60372;SDS011;46216;52.220;5.134;2022-11-15T10:56:49;7.97;;;5.07;;
60372;SDS011;46216;52.220;5.134;2022-11-15T10:59:19;9.90;;;5.25;;
60372;SDS011;46216;52.220;5.134;2022-11-15T11:01:52;9.15;;;5.25;;
60372;SDS011;46216;52.220;5.134;2022-11-15T11:04:17;7.18;;;5.65;;
60372;SDS011;46216;52.220;5.134;2022-11-15T11:06:51;8.32;;;5.68;;
60372;SDS011;46216;52.220;5.134;2022-11-15T11:12:00;6.90;;;5.22;;
60372;SDS011;46216;52.220;5.134;2022-11-15T11:14:33;7.05;;;5.07;;
60372;SDS011;46216;52.220;5.134;2022-11-15T11:22:11;6.63;;;4.57;;
60372;SDS011;46216;52.220;5.134;2022-11-15T11:24:50;7.32;;;4.07;;
60372;SDS011;46216;52.220;5.134;2022-11-15T11:30:47;6.57;;;3.88;;
60372;SDS011;46216;52.220;5.134;2022-11-15T11:34:00;6.32;;;3.45;;
60372;SDS011;46216;52.220;5.134;2022-11-15T11:39:22;6.30;;;2.80;;
60372;SDS011;46216;52.220;5.134;2022-11-15T11:50:28;5.90;;;2.40;;
60372;SDS011;46216;52.220;5.134;2022-11-15T11:52:57;4.72;;;2.30;;
60372;SDS011;46216;52.220;5.134;2022-11-15T11:55:36;6.57;;;2.30;;
60372;SDS011;46216;52.220;5.134;2022-11-15T12:01:05;3.75;;;2.10;;
60372;SDS011;46216;52.220;5.134;2022-11-15T12:03:43;5.53;;;2.20;;
60372;SDS011;46216;52.220;5.134;2022-11-15T12:09:35;6.88;;;2.10;;
60372;SDS011;46216;52.220;5.134;2022-11-15T12:15:24;4.15;;;1.90;;
60372;SDS011;46216;52.220;5.134;2022-11-15T12:17:52;6.07;;;1.83;;
60372;SDS011;46216;52.220;5.134;2022-11-15T12:20:24;4.05;;;1.70;;
60372;SDS011;46216;52.220;5.134;2022-11-15T12:28:01;7.78;;;1.73;;
60372;SDS011;46216;52.220;5.134;2022-11-15T12:30:43;8.13;;;1.90;;
60372;SDS011;46216;52.220;5.134;2022-11-15T12:33:32;6.20;;;1.70;;
60372;SDS011;46216;52.220;5.134;2022-11-15T12:36:08;8.93;;;1.70;;
60372;SDS011;46216;52.220;5.134;2022-11-15T12:38:54;3.08;;;1.40;;
60372;SDS011;46216;52.220;5.134;2022-11-15T12:41:29;5.10;;;1.70;;
60372;SDS011;46216;52.220;5.134;2022-11-15T12:43:56;2.75;;;1.40;;
60372;SDS011;46216;52.220;5.134;2022-11-15T13:02:33;4.05;;;1.17;;
60372;SDS011;46216;52.220;5.134;2022-11-15T13:17:37;6.40;;;1.30;;
60372;SDS011;46216;52.220;5.134;2022-11-15T13:27:52;5.47;;;1.52;;
60372;SDS011;46216;52.220;5.134;2022-11-15T13:30:22;4.60;;;1.23;;
60372;SDS011;46216;52.220;5.134;2022-11-15T13:32:51;4.63;;;1.38;;
60372;SDS011;46216;52.220;5.134;2022-11-15T13:35:25;6.40;;;1.10;;
60372;SDS011;46216;52.220;5.134;2022-11-15T13:37:53;4.07;;;1.08;;
60372;SDS011;46216;52.220;5.134;2022-11-15T13:40:25;4.22;;;1.10;;
60372;SDS011;46216;52.220;5.134;2022-11-15T13:42:58;4.70;;;1.30;;
60372;SDS011;46216;52.220;5.134;2022-11-15T13:45:24;4.20;;;1.20;;
60372;SDS011;46216;52.220;5.134;2022-11-15T13:47:52;4.82;;;1.50;;
60372;SDS011;46216;52.220;5.134;2022-11-15T13:50:20;4.47;;;1.38;;
60372;SDS011;46216;52.220;5.134;2022-11-15T13:52:49;7.22;;;1.48;;
60372;SDS011;46216;52.220;5.134;2022-11-15T13:55:19;3.20;;;1.20;;
60372;SDS011;46216;52.220;5.134;2022-11-15T13:57:57;6.32;;;3.50;;
60372;SDS011;46216;52.220;5.134;2022-11-15T14:00:36;3.28;;;1.40;;
60372;SDS011;46216;52.220;5.134;2022-11-15T14:06:02;3.63;;;1.33;;
60372;SDS011;46216;52.220;5.134;2022-11-15T14:08:29;3.13;;;1.50;;
60372;SDS011;46216;52.220;5.134;2022-11-15T14:13:41;3.97;;;1.67;;
60372;SDS011;46216;52.220;5.134;2022-11-15T14:16:20;4.18;;;1.67;;
60372;SDS011;46216;52.220;5.134;2022-11-15T14:18:47;4.40;;;1.40;;
60372;SDS011;46216;52.220;5.134;2022-11-15T14:21:14;3.95;;;1.50;;
60372;SDS011;46216;52.220;5.134;2022-11-15T14:23:40;4.90;;;1.40;;
60372;SDS011;46216;52.220;5.134;2022-11-15T14:26:10;4.13;;;1.70;;
60372;SDS011;46216;52.220;5.134;2022-11-15T14:28:50;5.55;;;1.60;;
60372;SDS011;46216;52.220;5.134;2022-11-15T14:31:16;2.83;;;1.50;;
60372;SDS011;46216;52.220;5.134;2022-11-15T14:33:41;5.43;;;1.65;;
60372;SDS011;46216;52.220;5.134;2022-11-15T14:36:13;4.63;;;1.67;;
60372;SDS011;46216;52.220;5.134;2022-11-15T14:38:41;4.45;;;1.77;;
60372;SDS011;46216;52.220;5.134;2022-11-15T14:41:16;6.57;;;1.83;;
60372;SDS011;46216;52.220;5.134;2022-11-15T14:43:43;4.25;;;1.80;;
60372;SDS011;46216;52.220;5.134;2022-11-15T14:46:08;3.47;;;1.77;;
60372;SDS011;46216;52.220;5.134;2022-11-15T14:48:33;4.80;;;1.90;;
60372;SDS011;46216;52.220;5.134;2022-11-15T14:50:59;8.20;;;2.00;;
60372;SDS011;46216;52.220;5.134;2022-11-15T14:53:25;5.20;;;2.03;;
60372;SDS011;46216;52.220;5.134;2022-11-15T14:55:50;4.38;;;1.67;;
60372;SDS011;46216;52.220;5.134;2022-11-15T14:58:15;3.30;;;1.70;;
60372;SDS011;46216;52.220;5.134;2022-11-15T15:00:41;5.88;;;1.80;;
60372;SDS011;46216;52.220;5.134;2022-11-15T15:03:07;5.28;;;1.70;;
60372;SDS011;46216;52.220;5.134;2022-11-15T15:05:38;5.30;;;1.77;;
60372;SDS011;46216;52.220;5.134;2022-11-15T15:08:06;4.63;;;1.67;;
60372;SDS011;46216;52.220;5.134;2022-11-15T15:10:32;4.35;;;1.50;;
60372;SDS011;46216;52.220;5.134;2022-11-15T15:13:00;4.93;;;1.63;;
60372;SDS011;46216;52.220;5.134;2022-11-15T15:15:31;3.70;;;1.50;;
60372;SDS011;46216;52.220;5.134;2022-11-15T15:17:58;5.93;;;1.33;;
60372;SDS011;46216;52.220;5.134;2022-11-15T15:20:23;5.35;;;1.55;;
60372;SDS011;46216;52.220;5.134;2022-11-15T15:22:49;5.93;;;1.50;;
60372;SDS011;46216;52.220;5.134;2022-11-15T15:25:26;5.60;;;1.70;;
60372;SDS011;46216;52.220;5.134;2022-11-15T15:27:53;4.18;;;1.42;;
60372;SDS011;46216;52.220;5.134;2022-11-15T15:30:20;4.70;;;1.88;;
60372;SDS011;46216;52.220;5.134;2022-11-15T15:32:47;4.22;;;1.55;;
60372;SDS011;46216;52.220;5.134;2022-11-15T15:35:13;6.25;;;1.40;;
60372;SDS011;46216;52.220;5.134;2022-11-15T15:37:39;4.13;;;1.38;;
60372;SDS011;46216;52.220;5.134;2022-11-15T15:40:08;2.83;;;1.30;;
60372;SDS011;46216;52.220;5.134;2022-11-15T15:42:37;3.00;;;1.10;;
60372;SDS011;46216;52.220;5.134;2022-11-15T15:45:03;3.60;;;1.30;;
60372;SDS011;46216;52.220;5.134;2022-11-15T15:47:28;5.55;;;1.30;;
60372;SDS011;46216;52.220;5.134;2022-11-15T15:49:54;2.40;;;1.10;;
60372;SDS011;46216;52.220;5.134;2022-11-15T15:52:19;3.70;;;1.30;;
60372;SDS011;46216;52.220;5.134;2022-11-15T15:54:44;3.88;;;1.33;;
60372;SDS011;46216;52.220;5.134;2022-11-15T15:57:13;4.57;;;1.20;;
60372;SDS011;46216;52.220;5.134;2022-11-15T15:59:39;2.03;;;1.15;;
60372;SDS011;46216;52.220;5.134;2022-11-15T16:02:04;3.80;;;1.20;;
60372;SDS011;46216;52.220;5.134;2022-11-15T16:04:30;2.90;;;1.10;;
60372;SDS011;46216;52.220;5.134;2022-11-15T16:06:58;3.00;;;1.10;;
60372;SDS011;46216;52.220;5.134;2022-11-15T16:09:25;3.03;;;1.30;;
60372;SDS011;46216;52.220;5.134;2022-11-15T16:12:09;3.42;;;1.40;;
60372;SDS011;46216;52.220;5.134;2022-11-15T16:14:34;4.05;;;1.45;;
60372;SDS011;46216;52.220;5.134;2022-11-15T16:17:00;2.50;;;1.23;;
60372;SDS011;46216;52.220;5.134;2022-11-15T16:19:26;2.97;;;1.20;;
60372;SDS011;46216;52.220;5.134;2022-11-15T16:21:51;4.82;;;1.15;;
60372;SDS011;46216;52.220;5.134;2022-11-15T16:24:19;4.07;;;1.42;;
60372;SDS011;46216;52.220;5.134;2022-11-15T16:26:48;4.55;;;1.40;;
60372;SDS011;46216;52.220;5.134;2022-11-15T16:29:15;3.10;;;1.27;;
60372;SDS011;46216;52.220;5.134;2022-11-15T16:31:40;3.28;;;1.25;;
60372;SDS011;46216;52.220;5.134;2022-11-15T16:34:05;2.65;;;1.27;;
60372;SDS011;46216;52.220;5.134;2022-11-15T16:36:32;4.18;;;1.17;;
60372;SDS011;46216;52.220;5.134;2022-11-15T16:39:02;2.20;;;1.00;;
60372;SDS011;46216;52.220;5.134;2022-11-15T16:41:29;2.92;;;1.20;;
60372;SDS011;46216;52.220;5.134;2022-11-15T16:43:54;5.38;;;1.25;;
60372;SDS011;46216;52.220;5.134;2022-11-15T16:46:20;4.85;;;1.13;;
60372;SDS011;46216;52.220;5.134;2022-11-15T16:48:48;1.77;;;1.20;;
60372;SDS011;46216;52.220;5.134;2022-11-15T16:51:14;5.97;;;1.38;;
60372;SDS011;46216;52.220;5.134;2022-11-15T16:53:39;3.65;;;1.20;;
60372;SDS011;46216;52.220;5.134;2022-11-15T16:56:19;3.40;;;1.50;;
60372;SDS011;46216;52.220;5.134;2022-11-15T16:58:48;6.88;;;1.35;;
60372;SDS011;46216;52.220;5.134;2022-11-15T17:01:18;3.13;;;1.17;;